Time;durP1;ratioP1;P1;durP2;ratioP2;P2;SDS_P1;SDS_P2;PMS_P1;PMS_P2;Temp;Humidity;BMP_temperature;BMP_pressure;BME280_temperature;BME280_humidity;BME280_pressure;Samples;Min_cycle;Max_cycle;Signal;HPM_P1;HPM_P2
2021/05/06 00:01:24;;;;;;;;;;;22.50;34.20;;;;;;1506420;77;1174;-56
2021/05/06 00:14:37;;;;;;;;;;;22.50;33.70;;;;;;1545756;75;1621;-56
2021/05/06 00:32:35;;;;;;;;;;;22.40;33.40;;;;;;1521432;76;1136;-56
2021/05/06 00:34:36;;;;;;;;;;;22.50;33.40;;;;;;1521278;78;1651;-56
2021/05/06 00:36:38;;;;;;;;;;;22.60;33.40;;;;;;1544875;75;822;-56
2021/05/06 00:38:47;;;;;;;;;;;22.50;33.40;;;;;;1543112;75;1924;-54
2021/05/06 00:59:22;;;;;;;;;;;22.50;33.30;;;;;;1545921;75;1923;-56
2021/05/06 01:03:42;;;;;;;;;;;22.50;33.40;;;;;;1551054;75;1646;-57
2021/05/06 01:05:38;;;;;;;;;;;22.50;33.40;;;;;;1539404;75;1663;-56
2021/05/06 01:07:44;;;;;;;;;;;22.50;33.30;;;;;;1583177;74;1119;-56
2021/05/06 01:09:50;;;;;;;;;;;22.50;33.30;;;;;;1578403;73;1599;-56
2021/05/06 01:11:57;;;;;;;;;;;22.50;33.30;;;;;;1572134;73;1609;-55
2021/05/06 01:41:01;;;;;;;;;;;22.30;33.50;;;;;;1577738;73;1094;-53
2021/05/06 01:43:02;;;;;;;;;;;22.30;33.40;;;;;;1575606;73;1621;-57
2021/05/06 01:45:17;;;;;;;;;;;22.30;33.30;;;;;;1568410;73;1692;-56
2021/05/06 01:47:15;;;;;;;;;;;22.30;33.40;;;;;;1576024;73;1710;-57
2021/05/06 01:49:45;;;;;;;;;;;22.30;33.40;;;;;;1580312;73;1725;-53
2021/05/06 01:58:44;;;;;;;;;;;22.30;33.20;;;;;;1572529;73;1908;-72
2021/05/06 02:00:49;;;;;;;;;;;22.30;33.30;;;;;;1571513;73;1749;-71
2021/05/06 02:02:46;;;;;;;;;;;22.30;33.20;;;;;;1579311;73;1459;-73
2021/05/06 02:04:48;;;;;;;;;;;22.30;33.20;;;;;;1577156;73;1205;-72
2021/05/06 02:06:50;;;;;;;;;;;22.30;33.10;;;;;;1528805;76;721;-73
2021/05/06 02:08:51;;;;;;;;;;;22.30;33.10;;;;;;1515831;77;682;-73
2021/05/06 02:10:57;;;;;;;;;;;22.30;33.10;;;;;;1512840;77;712;-73
2021/05/06 02:12:57;;;;;;;;;;;22.30;33.10;;;;;;1527995;76;1696;-71
2021/05/06 02:15:08;;;;;;;;;;;22.30;33.00;;;;;;1556323;74;1139;-71
2021/05/06 02:17:08;;;;;;;;;;;22.30;33.00;;;;;;1531991;76;1689;-71
2021/05/06 02:19:10;;;;;;;;;;;22.30;32.90;;;;;;1521984;76;1914;-71
2021/05/06 02:21:16;;;;;;;;;;;22.30;32.80;;;;;;1537266;76;834;-71
2021/05/06 02:23:16;;;;;;;;;;;22.30;32.70;;;;;;1516222;76;1524;-70
2021/05/06 02:25:19;;;;;;;;;;;22.40;32.60;;;;;;1537506;75;1128;-72
2021/05/06 02:27:20;;;;;;;;;;;22.40;32.60;;;;;;1546302;76;828;-72
2021/05/06 02:29:22;;;;;;;;;;;22.40;32.60;;;;;;1527999;76;775;-74
2021/05/06 02:31:27;;;;;;;;;;;22.40;32.60;;;;;;1540554;76;736;-73
2021/05/06 02:33:28;;;;;;;;;;;22.40;32.60;;;;;;1538803;76;1538;-72
2021/05/06 02:35:29;;;;;;;;;;;22.40;32.60;;;;;;1530156;75;1120;-70
2021/05/06 02:37:31;;;;;;;;;;;22.40;32.60;;;;;;1528960;76;818;-73
2021/05/06 02:39:33;;;;;;;;;;;22.40;32.70;;;;;;1534261;76;1939;-75
2021/05/06 02:41:35;;;;;;;;;;;22.40;32.80;;;;;;1530400;76;829;-75
2021/05/06 02:43:37;;;;;;;;;;;22.40;32.80;;;;;;1538959;76;810;-77
2021/05/06 02:45:39;;;;;;;;;;;22.40;32.70;;;;;;1532129;75;1164;-74
2021/05/06 02:47:41;;;;;;;;;;;22.50;32.80;;;;;;1530525;76;771;-74
2021/05/06 02:49:47;;;;;;;;;;;22.50;32.80;;;;;;1538489;76;743;-74
2021/05/06 02:51:56;;;;;;;;;;;22.40;32.80;;;;;;1533785;76;793;-70
2021/05/06 02:53:56;;;;;;;;;;;22.40;33.00;;;;;;1534110;76;1744;-70
2021/05/06 02:56:11;;;;;;;;;;;22.40;33.10;;;;;;1540936;74;1143;-69
2021/05/06 02:58:57;;;;;;;;;;;22.40;33.20;;;;;;1563699;74;1689;-70
2021/05/06 03:02:45;;;;;;;;;;;22.50;33.10;;;;;;1562635;74;1671;-70
2021/05/06 03:04:46;;;;;;;;;;;22.40;32.90;;;;;;1564203;74;1599;-69
2021/05/06 03:06:56;;;;;;;;;;;22.40;32.80;;;;;;1561659;74;1127;-69
2021/05/06 03:09:01;;;;;;;;;;;22.50;32.90;;;;;;1559041;74;1686;-69
2021/05/06 03:21:02;;;;;;;;;;;22.40;32.80;;;;;;1551943;75;1143;-72
2021/05/06 03:24:34;;;;;;;;;;;22.40;33.10;;;;;;1567842;74;748;-72
2021/05/06 03:26:36;;;;;;;;;;;22.40;33.10;;;;;;1558495;74;1144;-72
2021/05/06 03:28:43;;;;;;;;;;;22.40;33.00;;;;;;1567933;74;748;-72
2021/05/06 03:42:19;;;;;;;;;;;22.20;33.30;;;;;;1562521;74;1650;-70
2021/05/06 03:44:30;;;;;;;;;;;22.10;33.40;;;;;;1563952;74;1580;-70
2021/05/06 03:46:44;;;;;;;;;;;22.10;33.50;;;;;;1561713;73;1626;-72
2021/05/06 04:03:14;;;;;;;;;;;22.10;33.50;;;;;;1557830;74;809;-70
2021/05/06 04:18:16;;;;;;;;;;;22.60;33.60;;;;;;1526512;76;828;-73
2021/05/06 04:27:22;;;;;;;;;;;22.50;33.60;;;;;;1532860;76;1676;-70
2021/05/06 04:38:38;;;;;;;;;;;22.30;33.40;;;;;;1540447;75;869;-74
2021/05/06 04:41:09;;;;;;;;;;;22.20;33.60;;;;;;1529754;76;1926;-75
2021/05/06 04:54:57;;;;;;;;;;;22.20;33.30;;;;;;1450740;80;1665;-73
2021/05/06 05:05:26;;;;;;;;;;;22.30;33.10;;;;;;1530874;76;1167;-73
2021/05/06 05:07:35;;;;;;;;;;;22.20;33.10;;;;;;1530105;76;839;-75
2021/05/06 05:09:54;;;;;;;;;;;22.30;33.30;;;;;;1529681;76;1169;-72
2021/05/06 05:11:50;;;;;;;;;;;22.30;33.10;;;;;;1525176;76;1644;-71
2021/05/06 05:14:11;;;;;;;;;;;22.30;33.10;;;;;;1528499;76;1797;-73
2021/05/06 05:20:39;;;;;;;;;;;22.30;32.20;;;;;;1537447;76;1912;-76
2021/05/06 05:25:06;;;;;;;;;;;22.10;31.00;;;;;;1531595;76;685;-71
2021/05/06 05:27:07;;;;;;;;;;;22.10;32.00;;;;;;1532283;76;1670;-71
2021/05/06 05:29:09;;;;;;;;;;;22.10;32.30;;;;;;1521917;76;678;-69
2021/05/06 05:31:11;;;;;;;;;;;22.20;32.30;;;;;;1529921;76;690;-76
2021/05/06 05:33:15;;;;;;;;;;;22.10;32.40;;;;;;1538672;76;644;-69
2021/05/06 05:35:29;;;;;;;;;;;22.10;32.40;;;;;;1532890;74;1811;-69
2021/05/06 05:37:22;;;;;;;;;;;22.20;32.40;;;;;;1531825;76;1698;-73
2021/05/06 05:39:36;;;;;;;;;;;22.20;32.50;;;;;;1538684;76;1721;-69
2021/05/06 05:55:02;;;;;;;;;;;21.90;33.40;;;;;;1532155;76;1641;-68
2021/05/06 05:57:12;;;;;;;;;;;21.90;33.60;;;;;;1546804;76;746;-69
2021/05/06 05:59:11;;;;;;;;;;;21.80;33.60;;;;;;1568942;75;1258;-69
2021/05/06 06:01:13;;;;;;;;;;;21.80;33.70;;;;;;1558360;75;1935;-69
2021/05/06 06:03:15;;;;;;;;;;;21.70;33.80;;;;;;1565905;74;768;-69
2021/05/06 06:05:16;;;;;;;;;;;21.70;33.90;;;;;;1549536;75;1157;-69
2021/05/06 06:07:18;;;;;;;;;;;21.70;33.90;;;;;;1552378;74;812;-69
2021/05/06 06:09:20;;;;;;;;;;;21.60;33.90;;;;;;1558606;74;720;-69
2021/05/06 06:11:22;;;;;;;;;;;21.80;34.00;;;;;;1563452;75;786;-70
2021/05/06 06:13:26;;;;;;;;;;;21.80;33.90;;;;;;1562375;75;803;-71
2021/05/06 06:17:45;;;;;;;;;;;21.80;33.60;;;;;;1557020;74;753;-69
2021/05/06 06:19:49;;;;;;;;;;;21.80;33.60;;;;;;1573249;74;1914;-69
2021/05/06 06:21:53;;;;;;;;;;;21.80;33.60;;;;;;1549567;74;1650;-69
2021/05/06 06:23:54;;;;;;;;;;;21.80;33.60;;;;;;1560895;75;1658;-68
2021/05/06 06:25:57;;;;;;;;;;;21.80;33.50;;;;;;1567508;74;1152;-69
2021/05/06 06:27:59;;;;;;;;;;;21.90;33.40;;;;;;1557542;74;842;-69
2021/05/06 06:30:02;;;;;;;;;;;21.90;33.40;;;;;;1556007;75;760;-69
2021/05/06 06:32:07;;;;;;;;;;;22.00;33.30;;;;;;1562857;75;701;-69
2021/05/06 06:34:08;;;;;;;;;;;22.00;33.10;;;;;;1565299;75;1684;-69
2021/05/06 06:36:09;;;;;;;;;;;22.00;33.00;;;;;;1558930;74;1147;-72
2021/05/06 06:38:11;;;;;;;;;;;22.00;33.00;;;;;;1561880;75;753;-72
2021/05/06 06:40:14;;;;;;;;;;;22.00;33.00;;;;;;1554376;75;1938;-71
2021/05/06 06:42:16;;;;;;;;;;;22.00;32.90;;;;;;1552189;75;724;-73
2021/05/06 06:44:19;;;;;;;;;;;22.00;32.90;;;;;;1564446;75;781;-69
2021/05/06 06:46:21;;;;;;;;;;;22.00;32.90;;;;;;1556876;73;1974;-69
2021/05/06 06:48:23;;;;;;;;;;;22.10;32.90;;;;;;1560247;75;786;-69
2021/05/06 06:50:25;;;;;;;;;;;22.10;32.80;;;;;;1563741;75;778;-69
2021/05/06 06:52:27;;;;;;;;;;;22.00;32.70;;;;;;1549781;75;956;-70
2021/05/06 06:54:29;;;;;;;;;;;22.10;32.70;;;;;;1553493;75;778;-71
2021/05/06 06:56:30;;;;;;;;;;;22.10;32.60;;;;;;1567841;74;1178;-66
2021/05/06 06:58:32;;;;;;;;;;;22.10;32.70;;;;;;1550625;74;763;-69
2021/05/06 07:00:34;;;;;;;;;;;22.10;32.70;;;;;;1527510;76;1950;-69
2021/05/06 07:02:36;;;;;;;;;;;22.00;32.70;;;;;;1539564;76;845;-69
2021/05/06 07:04:38;;;;;;;;;;;22.10;32.80;;;;;;1525104;76;771;-69
2021/05/06 07:06:40;;;;;;;;;;;22.00;32.70;;;;;;1527385;76;1107;-69
2021/05/06 07:08:44;;;;;;;;;;;22.00;32.60;;;;;;1534647;76;776;-70
2021/05/06 07:10:49;;;;;;;;;;;22.00;32.50;;;;;;1519306;76;1424;-69
2021/05/06 07:12:51;;;;;;;;;;;22.00;32.70;;;;;;1545431;76;808;-69
2021/05/06 07:14:53;;;;;;;;;;;22.00;32.60;;;;;;1531497;76;1134;-69
2021/05/06 07:16:55;;;;;;;;;;;22.00;32.60;;;;;;1524677;76;780;-69
2021/05/06 07:18:57;;;;;;;;;;;22.00;32.60;;;;;;1533753;76;732;-69
2021/05/06 07:21:00;;;;;;;;;;;22.00;32.50;;;;;;1529367;76;1959;-69
2021/05/06 07:23:02;;;;;;;;;;;22.00;32.60;;;;;;1539035;76;786;-70
2021/05/06 07:25:04;;;;;;;;;;;22.00;32.50;;;;;;1546502;75;1137;-72
2021/05/06 07:27:06;;;;;;;;;;;22.00;32.40;;;;;;1528654;76;773;-67
2021/05/06 07:29:08;;;;;;;;;;;22.00;32.40;;;;;;1536441;76;801;-69
2021/05/06 07:31:11;;;;;;;;;;;22.00;32.40;;;;;;1542418;76;800;-69
2021/05/06 07:33:13;;;;;;;;;;;22.00;32.40;;;;;;1557334;76;770;-69
2021/05/06 07:35:15;;;;;;;;;;;22.00;32.50;;;;;;1531297;75;1139;-76
2021/05/06 07:37:17;;;;;;;;;;;22.00;32.40;;;;;;1547530;76;755;-69
2021/05/06 07:39:19;;;;;;;;;;;22.00;32.40;;;;;;1528637;76;763;-69
2021/05/06 07:41:21;;;;;;;;;;;22.00;32.40;;;;;;1537531;76;1919;-69
2021/05/06 07:43:23;;;;;;;;;;;22.00;32.30;;;;;;1541010;76;944;-69
2021/05/06 07:45:25;;;;;;;;;;;22.00;32.30;;;;;;1534377;76;1211;-69
2021/05/06 07:47:27;;;;;;;;;;;22.00;32.30;;;;;;1541358;76;802;-69
2021/05/06 07:49:28;;;;;;;;;;;22.00;32.30;;;;;;1522416;76;803;-69
2021/05/06 07:51:30;;;;;;;;;;;22.00;32.20;;;;;;1538077;76;763;-70
2021/05/06 07:53:46;;;;;;;;;;;22.00;32.20;;;;;;1527673;76;755;-71
2021/05/06 07:55:41;;;;;;;;;;;22.00;32.20;;;;;;1528999;74;215927;-56
2021/05/06 07:57:43;;;;;;;;;;;22.10;32.30;;;;;;1520198;76;715;-56
2021/05/06 07:59:45;;;;;;;;;;;22.00;32.20;;;;;;1537226;76;1180;-54
2021/05/06 08:01:47;;;;;;;;;;;22.00;32.20;;;;;;1528874;76;1931;-54
2021/05/06 08:03:50;;;;;;;;;;;22.00;32.20;;;;;;1510684;76;781;-52
2021/05/06 08:05:56;;;;;;;;;;;22.00;32.30;;;;;;1515614;76;734;-54
2021/05/06 08:07:55;;;;;;;;;;;22.00;32.30;;;;;;1527911;76;1629;-53
2021/05/06 08:09:57;;;;;;;;;;;22.00;32.30;;;;;;1534197;76;1126;-57
2021/05/06 08:12:01;;;;;;;;;;;22.00;32.30;;;;;;1529338;76;729;-57
2021/05/06 08:14:02;;;;;;;;;;;22.00;32.30;;;;;;1523435;76;1659;-54
2021/05/06 08:16:04;;;;;;;;;;;22.00;32.30;;;;;;1527043;76;706;-54
2021/05/06 08:18:06;;;;;;;;;;;22.00;32.30;;;;;;1520496;76;703;-54
2021/05/06 08:20:09;;;;;;;;;;;22.00;32.30;;;;;;1524773;76;1103;-55
2021/05/06 08:22:11;;;;;;;;;;;21.90;32.50;;;;;;1525458;76;1936;-57
2021/05/06 08:24:13;;;;;;;;;;;21.90;32.40;;;;;;1523355;76;778;-56
2021/05/06 08:26:15;;;;;;;;;;;22.00;32.30;;;;;;1524801;76;757;-54
2021/05/06 08:28:17;;;;;;;;;;;22.00;32.20;;;;;;1519671;76;750;-57
2021/05/06 08:30:19;;;;;;;;;;;21.90;32.40;;;;;;1534311;76;1118;-55
2021/05/06 08:32:21;;;;;;;;;;;21.90;32.40;;;;;;1537478;76;723;-54
2021/05/06 08:34:23;;;;;;;;;;;21.90;32.50;;;;;;1509010;76;726;-52
2021/05/06 08:36:25;;;;;;;;;;;21.90;32.40;;;;;;1530261;76;730;-52
2021/05/06 08:38:27;;;;;;;;;;;22.00;32.40;;;;;;1517259;76;735;-57
2021/05/06 08:40:29;;;;;;;;;;;21.90;32.30;;;;;;1524370;76;1087;-56
2021/05/06 08:42:31;;;;;;;;;;;21.90;32.50;;;;;;1526380;76;1952;-56
2021/05/06 08:44:35;;;;;;;;;;;22.00;32.50;;;;;;1518182;76;722;-52
2021/05/06 08:46:44;;;;;;;;;;;21.90;32.40;;;;;;1508029;76;718;-54
2021/05/06 08:48:41;;;;;;;;;;;21.90;32.30;;;;;;1523187;76;1593;-56
2021/05/06 08:50:42;;;;;;;;;;;21.90;32.30;;;;;;1525134;76;1123;-57
2021/05/06 08:52:44;;;;;;;;;;;21.80;32.30;;;;;;1509922;76;682;-54
2021/05/06 08:54:49;;;;;;;;;;;21.90;32.60;;;;;;1522182;76;669;-54
2021/05/06 08:56:51;;;;;;;;;;;21.90;32.60;;;;;;1535384;76;792;-57
2021/05/06 08:58:54;;;;;;;;;;;21.90;32.40;;;;;;1511519;76;767;-57
2021/05/06 09:00:55;;;;;;;;;;;21.90;32.50;;;;;;1511151;76;1960;-57
2021/05/06 09:02:57;;;;;;;;;;;21.80;32.40;;;;;;1520249;76;729;-56
2021/05/06 09:05:09;;;;;;;;;;;21.80;32.60;;;;;;1522222;76;772;-57
2021/05/06 09:07:11;;;;;;;;;;;21.80;32.50;;;;;;1532393;76;749;-56
2021/05/06 09:09:15;;;;;;;;;;;21.70;32.50;;;;;;1520923;76;1102;-54
2021/05/06 09:11:16;;;;;;;;;;;21.70;32.70;;;;;;1532735;76;1889;-56
2021/05/06 09:13:25;;;;;;;;;;;21.80;32.50;;;;;;1528702;76;748;-56
2021/05/06 09:15:27;;;;;;;;;;;21.80;32.50;;;;;;1541339;76;765;-57
2021/05/06 09:17:29;;;;;;;;;;;21.80;32.60;;;;;;1515692;76;781;-57
2021/05/06 09:19:31;;;;;;;;;;;21.70;32.60;;;;;;1512387;76;1096;-57
2021/05/06 09:21:37;;;;;;;;;;;21.70;32.60;;;;;;1529827;76;1933;-56
2021/05/06 09:23:38;;;;;;;;;;;21.80;32.60;;;;;;1521537;76;725;-56
2021/05/06 09:25:40;;;;;;;;;;;21.80;32.50;;;;;;1524902;76;789;-54
2021/05/06 09:27:42;;;;;;;;;;;21.90;32.60;;;;;;1524103;76;723;-51
2021/05/06 09:29:45;;;;;;;;;;;21.80;32.50;;;;;;1527971;76;1076;-54
2021/05/06 09:31:47;;;;;;;;;;;21.80;32.50;;;;;;1528564;76;787;-57
2021/05/06 09:33:49;;;;;;;;;;;21.80;32.40;;;;;;1516998;76;739;-57
2021/05/06 09:35:51;;;;;;;;;;;21.80;32.40;;;;;;1529798;76;889;-56
2021/05/06 09:37:53;;;;;;;;;;;21.90;32.60;;;;;;1506755;76;755;-54
2021/05/06 09:39:58;;;;;;;;;;;21.80;32.50;;;;;;1530013;76;1102;-55
2021/05/06 09:42:07;;;;;;;;;;;21.80;32.50;;;;;;1518266;76;1910;-57
2021/05/06 09:44:10;;;;;;;;;;;21.80;32.50;;;;;;1517179;76;722;-57
2021/05/06 09:46:31;;;;;;;;;;;21.80;32.50;;;;;;1514906;76;692;-56
2021/05/06 09:48:33;;;;;;;;;;;21.90;32.50;;;;;;1520000;76;818;-57
2021/05/06 09:50:35;;;;;;;;;;;21.90;32.40;;;;;;1526154;75;1136;-56
2021/05/06 09:52:55;;;;;;;;;;;21.90;32.40;;;;;;1513286;76;779;-56
2021/05/06 09:54:57;;;;;;;;;;;21.90;32.30;;;;;;1512682;76;716;-57
2021/05/06 09:56:59;;;;;;;;;;;21.90;32.30;;;;;;1522231;76;770;-56
2021/05/06 09:59:01;;;;;;;;;;;22.00;32.30;;;;;;1523987;76;845;-56
2021/05/06 10:01:10;;;;;;;;;;;22.00;32.30;;;;;;1528844;76;1929;-57
2021/05/06 10:03:18;;;;;;;;;;;21.90;32.30;;;;;;1518907;76;743;-56
2021/05/06 10:05:20;;;;;;;;;;;22.00;32.40;;;;;;1529246;76;853;-57
2021/05/06 10:07:23;;;;;;;;;;;21.90;32.50;;;;;;1520784;76;819;-57
2021/05/06 10:09:25;;;;;;;;;;;21.80;32.50;;;;;;1527990;76;1090;-53
2021/05/06 10:11:27;;;;;;;;;;;21.90;32.60;;;;;;1526057;76;751;-53
2021/05/06 10:13:29;;;;;;;;;;;22.00;32.60;;;;;;1523087;76;733;-56
2021/05/06 10:15:30;;;;;;;;;;;21.90;32.50;;;;;;1542615;76;801;-57
2021/05/06 10:17:33;;;;;;;;;;;21.90;32.40;;;;;;1530766;76;813;-57
2021/05/06 10:19:38;;;;;;;;;;;22.00;32.40;;;;;;1524134;76;1076;-56
2021/05/06 10:21:40;;;;;;;;;;;21.90;32.40;;;;;;1522617;76;1963;-54
2021/05/06 10:23:42;;;;;;;;;;;22.00;32.40;;;;;;1523719;76;753;-55
2021/05/06 10:25:44;;;;;;;;;;;22.00;32.40;;;;;;1522204;76;770;-53
2021/05/06 10:27:46;;;;;;;;;;;21.90;32.40;;;;;;1523449;76;810;-56
2021/05/06 10:29:52;;;;;;;;;;;22.00;32.30;;;;;;1523024;76;1103;-53
2021/05/06 10:31:52;;;;;;;;;;;21.90;32.30;;;;;;1527758;76;1712;-56
2021/05/06 10:33:54;;;;;;;;;;;21.90;32.30;;;;;;1520219;76;801;-57
2021/05/06 10:35:57;;;;;;;;;;;22.00;32.20;;;;;;1520590;76;768;-56
2021/05/06 10:37:59;;;;;;;;;;;22.00;32.20;;;;;;1530622;76;715;-53
2021/05/06 10:40:01;;;;;;;;;;;22.00;32.20;;;;;;1522984;76;1107;-56
2021/05/06 10:42:21;;;;;;;;;;;22.00;32.20;;;;;;1522990;76;1918;-56
2021/05/06 10:44:23;;;;;;;;;;;22.00;32.10;;;;;;1520404;76;729;-56
2021/05/06 10:46:43;;;;;;;;;;;22.00;32.10;;;;;;1496447;77;1174;-56
2021/05/06 10:49:00;;;;;;;;;;;22.00;32.10;;;;;;1513635;76;858;-57
2021/05/06 10:51:01;;;;;;;;;;;22.00;32.10;;;;;;1525382;76;1668;-57
2021/05/06 10:53:03;;;;;;;;;;;22.00;32.10;;;;;;1504420;76;760;-56
2021/05/06 10:55:08;;;;;;;;;;;22.00;32.10;;;;;;1515018;76;753;-56
2021/05/06 10:57:19;;;;;;;;;;;22.00;32.30;;;;;;1540302;76;1675;-57
2021/05/06 10:59:21;;;;;;;;;;;21.90;32.20;;;;;;1508128;76;1702;-54
2021/05/06 11:01:23;;;;;;;;;;;22.00;32.20;;;;;;1511603;76;1934;-56
2021/05/06 11:03:25;;;;;;;;;;;22.00;32.20;;;;;;1518066;76;657;-57
2021/05/06 11:05:28;;;;;;;;;;;22.00;32.10;;;;;;1519682;76;751;-56
2021/05/06 11:07:30;;;;;;;;;;;22.10;32.10;;;;;;1519902;76;739;-57
2021/05/06 11:09:37;;;;;;;;;;;22.00;32.10;;;;;;1546668;76;1117;-57
2021/05/06 11:11:38;;;;;;;;;;;22.10;32.10;;;;;;1522653;76;810;-53
2021/05/06 11:13:59;;;;;;;;;;;22.10;32.10;;;;;;1523315;76;767;-56
2021/05/06 11:16:16;;;;;;;;;;;22.10;32.10;;;;;;1539397;76;754;-56
2021/05/06 11:18:36;;;;;;;;;;;22.10;32.10;;;;;;1523697;76;710;-56
2021/05/06 11:20:45;;;;;;;;;;;22.10;32.10;;;;;;1525893;76;1118;-55
2021/05/06 11:22:50;;;;;;;;;;;22.10;32.10;;;;;;1516577;76;1950;-55
2021/05/06 11:24:52;;;;;;;;;;;22.10;32.10;;;;;;1523799;76;770;-56
2021/05/06 11:27:16;;;;;;;;;;;22.10;32.20;;;;;;1530137;76;725;-54
2021/05/06 11:29:34;;;;;;;;;;;22.10;32.10;;;;;;1517159;76;1669;-56
2021/05/06 11:31:43;;;;;;;;;;;22.10;32.10;;;;;;1525246;76;1823;-57
2021/05/06 11:33:45;;;;;;;;;;;22.10;32.20;;;;;;1522511;76;1806;-57
2021/05/06 11:36:01;;;;;;;;;;;22.10;32.30;;;;;;1521163;76;827;-56
2021/05/06 11:38:02;;;;;;;;;;;22.10;32.30;;;;;;1524568;76;765;-55
2021/05/06 11:40:05;;;;;;;;;;;22.00;32.20;;;;;;1522397;76;1131;-53
2021/05/06 11:42:11;;;;;;;;;;;22.00;32.20;;;;;;1534348;76;1947;-57
2021/05/06 11:44:12;;;;;;;;;;;22.10;32.30;;;;;;1524693;76;780;-53
2021/05/06 11:46:19;;;;;;;;;;;22.00;32.30;;;;;;1519925;76;672;-56
2021/05/06 11:48:22;;;;;;;;;;;22.00;32.40;;;;;;1523793;76;769;-56
2021/05/06 11:50:25;;;;;;;;;;;22.00;32.40;;;;;;1536047;75;1105;-56
2021/05/06 11:52:33;;;;;;;;;;;22.00;32.50;;;;;;1520529;76;745;-57
2021/05/06 11:54:35;;;;;;;;;;;22.00;32.50;;;;;;1533124;76;785;-56
2021/05/06 11:56:38;;;;;;;;;;;22.00;32.50;;;;;;1523973;76;718;-56
2021/05/06 11:58:40;;;;;;;;;;;22.00;32.60;;;;;;1520615;76;809;-56
2021/05/06 12:00:44;;;;;;;;;;;22.00;32.60;;;;;;1524409;76;1113;-56
2021/05/06 12:02:46;;;;;;;;;;;22.00;32.60;;;;;;1532959;76;1937;-57
2021/05/06 12:04:47;;;;;;;;;;;22.00;32.70;;;;;;1516932;76;729;-57
2021/05/06 12:06:49;;;;;;;;;;;22.00;33.00;;;;;;1502366;77;1196;-57
2021/05/06 12:08:51;;;;;;;;;;;22.00;34.10;;;;;;1519365;76;734;-53
2021/05/06 12:10:53;;;;;;;;;;;21.90;35.50;;;;;;1518920;76;1101;-56
2021/05/06 12:13:02;;;;;;;;;;;21.90;36.50;;;;;;1523608;76;704;-57
2021/05/06 12:15:04;;;;;;;;;;;21.90;38.00;;;;;;1511431;76;810;-57
2021/05/06 12:17:06;;;;;;;;;;;21.90;39.30;;;;;;1516742;76;733;-57
2021/05/06 12:19:09;;;;;;;;;;;21.80;39.90;;;;;;1520231;76;766;-56
2021/05/06 12:21:11;;;;;;;;;;;21.80;41.20;;;;;;1529878;76;1111;-56
2021/05/06 12:23:12;;;;;;;;;;;21.80;43.20;;;;;;1519850;76;1945;-55
2021/05/06 12:25:14;;;;;;;;;;;21.80;42.80;;;;;;1532153;76;750;-55
2021/05/06 12:27:18;;;;;;;;;;;21.80;44.20;;;;;;1515782;76;774;-56
2021/05/06 12:29:23;;;;;;;;;;;21.70;43.80;;;;;;1526707;76;1144;-55
2021/05/06 12:31:25;;;;;;;;;;;21.80;44.20;;;;;;1532622;76;788;-56
2021/05/06 12:33:30;;;;;;;;;;;21.70;44.40;;;;;;1526330;76;716;-54
2021/05/06 12:35:32;;;;;;;;;;;21.70;44.00;;;;;;1534867;76;713;-54
2021/05/06 12:37:36;;;;;;;;;;;21.70;43.70;;;;;;1528721;76;773;-54
2021/05/06 12:39:39;;;;;;;;;;;21.80;43.30;;;;;;1527008;76;1525;-56
2021/05/06 12:41:52;;;;;;;;;;;21.80;43.00;;;;;;1529294;76;1093;-53
2021/05/06 12:43:54;;;;;;;;;;;21.70;42.80;;;;;;1527610;76;675;-57
2021/05/06 12:46:09;;;;;;;;;;;21.70;42.60;;;;;;1528484;76;775;-56
2021/05/06 12:48:10;;;;;;;;;;;21.70;42.40;;;;;;1524480;76;700;-53
2021/05/06 12:50:14;;;;;;;;;;;21.70;42.50;;;;;;1522835;76;1081;-56
2021/05/06 12:52:29;;;;;;;;;;;21.80;42.10;;;;;;1532182;76;703;-57
2021/05/06 12:54:35;;;;;;;;;;;21.80;41.80;;;;;;1524238;76;748;-52
2021/05/06 12:56:38;;;;;;;;;;;21.90;41.50;;;;;;1534809;76;786;-56
2021/05/06 12:58:40;;;;;;;;;;;21.90;41.50;;;;;;1532390;76;789;-56
2021/05/06 13:00:42;;;;;;;;;;;21.90;41.30;;;;;;1523101;76;1166;-56
2021/05/06 13:02:44;;;;;;;;;;;21.80;41.20;;;;;;1528554;76;1928;-56
2021/05/06 13:04:50;;;;;;;;;;;21.80;40.80;;;;;;1521288;76;787;-56
2021/05/06 13:06:53;;;;;;;;;;;21.80;40.90;;;;;;1528517;76;846;-52
2021/05/06 13:08:56;;;;;;;;;;;21.80;40.70;;;;;;1526357;76;1880;-56
2021/05/06 13:11:00;;;;;;;;;;;21.80;40.70;;;;;;1522951;76;1127;-55
2021/05/06 13:13:02;;;;;;;;;;;21.80;40.60;;;;;;1514262;76;802;-54
2021/05/06 13:15:04;;;;;;;;;;;21.90;40.50;;;;;;1531005;76;780;-56
2021/05/06 13:17:07;;;;;;;;;;;21.90;40.40;;;;;;1532066;76;717;-57
2021/05/06 13:19:10;;;;;;;;;;;21.90;40.20;;;;;;1503379;77;1336;-53
2021/05/06 13:21:13;;;;;;;;;;;21.90;40.10;;;;;;1532496;76;1107;-56
2021/05/06 13:23:16;;;;;;;;;;;22.00;40.00;;;;;;1534603;76;1952;-52
2021/05/06 13:25:18;;;;;;;;;;;22.00;39.80;;;;;;1532548;76;982;-56
2021/05/06 13:27:21;;;;;;;;;;;21.90;39.70;;;;;;1516399;77;1259;-56
2021/05/06 13:29:23;;;;;;;;;;;22.00;39.60;;;;;;1532081;76;1118;-56
2021/05/06 13:31:26;;;;;;;;;;;22.00;39.50;;;;;;1531938;76;755;-56
2021/05/06 13:33:28;;;;;;;;;;;22.00;39.40;;;;;;1527243;76;759;-56
2021/05/06 13:35:30;;;;;;;;;;;22.00;39.30;;;;;;1537441;76;738;-56
2021/05/06 13:37:35;;;;;;;;;;;22.00;39.10;;;;;;1532865;76;730;-55
2021/05/06 13:39:37;;;;;;;;;;;22.10;39.10;;;;;;1530848;76;1122;-55
2021/05/06 13:41:44;;;;;;;;;;;22.10;38.90;;;;;;1524423;76;754;-54
2021/05/06 13:43:47;;;;;;;;;;;22.10;38.90;;;;;;1538940;76;1919;-55
2021/05/06 13:45:49;;;;;;;;;;;22.10;38.70;;;;;;1529379;76;727;-56
2021/05/06 13:47:51;;;;;;;;;;;22.10;38.60;;;;;;1531020;76;721;-56
2021/05/06 13:49:53;;;;;;;;;;;22.10;38.60;;;;;;1533768;76;1196;-53
2021/05/06 13:51:55;;;;;;;;;;;22.00;38.60;;;;;;1532273;76;769;-54
2021/05/06 13:53:57;;;;;;;;;;;22.00;38.60;;;;;;1531878;76;721;-54
2021/05/06 13:55:59;;;;;;;;;;;22.00;38.60;;;;;;1537995;73;2148;-56
2021/05/06 13:58:01;;;;;;;;;;;22.00;38.60;;;;;;1554442;75;755;-57
2021/05/06 14:00:02;;;;;;;;;;;22.00;38.50;;;;;;1553986;75;1223;-56
2021/05/06 14:02:04;;;;;;;;;;;22.00;38.50;;;;;;1537593;76;723;-56
2021/05/06 14:04:07;;;;;;;;;;;22.00;38.40;;;;;;1536921;76;1939;-56
2021/05/06 14:06:08;;;;;;;;;;;22.00;38.40;;;;;;1540302;76;731;-56
2021/05/06 14:08:14;;;;;;;;;;;22.00;38.40;;;;;;1539586;76;768;-57
2021/05/06 14:10:14;;;;;;;;;;;22.00;38.40;;;;;;1531519;76;1141;-56
2021/05/06 14:12:16;;;;;;;;;;;22.00;38.40;;;;;;1546988;76;859;-56
2021/05/06 14:14:18;;;;;;;;;;;22.00;38.60;;;;;;1540607;76;756;-55
2021/05/06 14:16:20;;;;;;;;;;;22.00;38.60;;;;;;1542803;76;796;-57
2021/05/06 14:18:22;;;;;;;;;;;21.90;38.60;;;;;;1537901;76;734;-57
2021/05/06 14:20:24;;;;;;;;;;;22.00;38.70;;;;;;1540818;76;1161;-56
2021/05/06 14:22:27;;;;;;;;;;;22.00;38.80;;;;;;1539483;76;790;-56
2021/05/06 14:24:29;;;;;;;;;;;22.00;38.70;;;;;;1529963;76;748;-56
2021/05/06 14:26:31;;;;;;;;;;;22.00;38.60;;;;;;1537626;76;776;-56
2021/05/06 14:28:33;;;;;;;;;;;22.10;38.60;;;;;;1540703;76;928;-57
2021/05/06 14:30:36;;;;;;;;;;;22.00;38.50;;;;;;1542218;76;1137;-56
2021/05/06 14:32:38;;;;;;;;;;;22.10;38.60;;;;;;1539531;76;775;-55
2021/05/06 14:34:40;;;;;;;;;;;22.00;38.70;;;;;;1546814;76;802;-56
2021/05/06 14:36:43;;;;;;;;;;;22.00;38.60;;;;;;1536357;76;779;-57
2021/05/06 14:38:45;;;;;;;;;;;22.10;38.70;;;;;;1541133;76;720;-56
2021/05/06 14:40:47;;;;;;;;;;;22.00;38.70;;;;;;1542543;76;1141;-57
2021/05/06 14:42:49;;;;;;;;;;;22.10;38.70;;;;;;1543957;76;1926;-56
2021/05/06 14:44:51;;;;;;;;;;;22.10;38.70;;;;;;1538122;76;804;-56
2021/05/06 14:46:53;;;;;;;;;;;22.10;38.70;;;;;;1543367;76;735;-56
2021/05/06 14:48:55;;;;;;;;;;;22.10;38.60;;;;;;1514135;77;1261;-56
2021/05/06 14:50:57;;;;;;;;;;;22.10;38.60;;;;;;1530065;76;1158;-55
2021/05/06 14:52:59;;;;;;;;;;;22.10;38.60;;;;;;1538706;76;718;-56
2021/05/06 14:55:00;;;;;;;;;;;22.10;38.60;;;;;;1536443;76;654;-56
2021/05/06 14:57:03;;;;;;;;;;;22.20;38.50;;;;;;1533368;76;773;-56
2021/05/06 14:59:05;;;;;;;;;;;22.20;38.40;;;;;;1535563;76;707;-56
2021/05/06 15:01:07;;;;;;;;;;;22.10;38.60;;;;;;1539455;76;1145;-56
2021/05/06 15:03:09;;;;;;;;;;;22.20;38.60;;;;;;1535659;76;1941;-56
2021/05/06 15:05:11;;;;;;;;;;;22.10;38.60;;;;;;1540424;76;740;-56
2021/05/06 15:07:13;;;;;;;;;;;22.10;38.60;;;;;;1536425;76;829;-56
2021/05/06 15:09:15;;;;;;;;;;;22.20;38.40;;;;;;1539788;76;1106;-55
2021/05/06 15:11:17;;;;;;;;;;;22.20;38.50;;;;;;1538105;76;810;-56
2021/05/06 15:13:19;;;;;;;;;;;22.20;38.50;;;;;;1538310;76;708;-56
2021/05/06 15:15:21;;;;;;;;;;;22.10;38.60;;;;;;1536723;76;839;-56
2021/05/06 15:17:23;;;;;;;;;;;22.20;38.60;;;;;;1534363;76;718;-56
2021/05/06 15:19:24;;;;;;;;;;;22.20;38.60;;;;;;1544799;75;1142;-57
2021/05/06 15:21:26;;;;;;;;;;;22.20;38.50;;;;;;1537540;76;793;-56
2021/05/06 15:23:28;;;;;;;;;;;22.10;38.40;;;;;;1541525;76;1944;-56
2021/05/06 15:25:30;;;;;;;;;;;22.20;38.60;;;;;;1537449;76;769;-56
2021/05/06 15:27:32;;;;;;;;;;;22.20;38.50;;;;;;1536853;76;777;-56
2021/05/06 15:29:34;;;;;;;;;;;22.20;38.40;;;;;;1535147;76;1207;-55
2021/05/06 15:31:39;;;;;;;;;;;22.10;38.40;;;;;;1530014;76;726;-56